sensor_id;sensor_type;location;lat;lon;timestamp;temperature;humidity
22779;DHT22;11556;51.194;3.800;2023-04-10T00:01:44;12.80;99.90
22779;DHT22;11556;51.194;3.800;2023-04-10T00:04:10;12.80;99.90
22779;DHT22;11556;51.194;3.800;2023-04-10T00:06:36;12.80;99.90
22779;DHT22;11556;51.194;3.800;2023-04-10T00:09:01;12.80;99.90
22779;DHT22;11556;51.194;3.800;2023-04-10T00:11:27;12.70;99.90
22779;DHT22;11556;51.194;3.800;2023-04-10T00:13:53;12.70;99.90
22779;DHT22;11556;51.194;3.800;2023-04-10T00:16:19;12.60;99.90
22779;DHT22;11556;51.194;3.800;2023-04-10T00:18:45;12.70;99.90
22779;DHT22;11556;51.194;3.800;2023-04-10T00:21:11;12.80;99.90
22779;DHT22;11556;51.194;3.800;2023-04-10T00:23:37;12.80;99.90
22779;DHT22;11556;51.194;3.800;2023-04-10T00:26:02;12.70;99.90
22779;DHT22;11556;51.194;3.800;2023-04-10T00:28:28;12.70;99.90
22779;DHT22;11556;51.194;3.800;2023-04-10T00:30:54;12.80;99.90
22779;DHT22;11556;51.194;3.800;2023-04-10T00:33:19;12.80;99.90
22779;DHT22;11556;51.194;3.800;2023-04-10T00:35:45;12.70;99.90
22779;DHT22;11556;51.194;3.800;2023-04-10T00:38:11;12.70;99.90
22779;DHT22;11556;51.194;3.800;2023-04-10T00:40:37;12.60;99.90
22779;DHT22;11556;51.194;3.800;2023-04-10T00:43:03;12.50;99.90
22779;DHT22;11556;51.194;3.800;2023-04-10T00:45:29;12.50;99.90
22779;DHT22;11556;51.194;3.800;2023-04-10T00:47:54;12.60;99.90
22779;DHT22;11556;51.194;3.800;2023-04-10T00:50:21;12.60;99.90
22779;DHT22;11556;51.194;3.800;2023-04-10T00:52:48;12.60;99.90
22779;DHT22;11556;51.194;3.800;2023-04-10T00:55:14;12.70;99.90
22779;DHT22;11556;51.194;3.800;2023-04-10T00:57:43;12.60;99.90
22779;DHT22;11556;51.194;3.800;2023-04-10T01:00:12;12.60;99.90
22779;DHT22;11556;51.194;3.800;2023-04-10T01:02:37;12.60;99.90
22779;DHT22;11556;51.194;3.800;2023-04-10T01:05:03;12.60;99.90
22779;DHT22;11556;51.194;3.800;2023-04-10T01:07:34;12.70;99.90
22779;DHT22;11556;51.194;3.800;2023-04-10T01:13:05;12.90;99.90
22779;DHT22;11556;51.194;3.800;2023-04-10T01:15:43;12.90;99.90
22779;DHT22;11556;51.194;3.800;2023-04-10T01:18:33;12.90;99.90
22779;DHT22;11556;51.194;3.800;2023-04-10T01:21:04;12.90;99.90
22779;DHT22;11556;51.194;3.800;2023-04-10T01:26:38;12.90;99.90
22779;DHT22;11556;51.194;3.800;2023-04-10T01:29:08;12.80;99.90
22779;DHT22;11556;51.194;3.800;2023-04-10T01:31:40;12.70;99.90
22779;DHT22;11556;51.194;3.800;2023-04-10T01:34:09;12.50;99.90
22779;DHT22;11556;51.194;3.800;2023-04-10T01:36:42;12.30;99.90
22779;DHT22;11556;51.194;3.800;2023-04-10T01:39:12;12.30;99.90
22779;DHT22;11556;51.194;3.800;2023-04-10T01:41:39;12.40;99.90
22779;DHT22;11556;51.194;3.800;2023-04-10T01:44:06;12.50;99.90
22779;DHT22;11556;51.194;3.800;2023-04-10T01:46:33;12.50;99.90
22779;DHT22;11556;51.194;3.800;2023-04-10T01:49:00;12.50;99.90
22779;DHT22;11556;51.194;3.800;2023-04-10T01:51:28;12.50;99.90
22779;DHT22;11556;51.194;3.800;2023-04-10T01:53:55;12.50;99.90
22779;DHT22;11556;51.194;3.800;2023-04-10T01:56:21;12.50;99.90
22779;DHT22;11556;51.194;3.800;2023-04-10T01:58:46;12.40;99.90
22779;DHT22;11556;51.194;3.800;2023-04-10T02:01:19;12.30;99.90
22779;DHT22;11556;51.194;3.800;2023-04-10T02:03:45;12.20;99.90
22779;DHT22;11556;51.194;3.800;2023-04-10T02:06:21;12.10;99.90
22779;DHT22;11556;51.194;3.800;2023-04-10T02:09:01;12.00;99.90
22779;DHT22;11556;51.194;3.800;2023-04-10T02:11:42;11.80;99.90
22779;DHT22;11556;51.194;3.800;2023-04-10T02:14:10;11.80;99.90
22779;DHT22;11556;51.194;3.800;2023-04-10T02:16:38;11.70;99.90
22779;DHT22;11556;51.194;3.800;2023-04-10T02:19:06;11.50;99.90
22779;DHT22;11556;51.194;3.800;2023-04-10T02:21:32;11.50;99.90
22779;DHT22;11556;51.194;3.800;2023-04-10T02:23:59;11.40;99.90
22779;DHT22;11556;51.194;3.800;2023-04-10T02:26:25;11.50;99.90
22779;DHT22;11556;51.194;3.800;2023-04-10T02:28:50;11.50;99.90
22779;DHT22;11556;51.194;3.800;2023-04-10T02:31:16;11.60;99.90
22779;DHT22;11556;51.194;3.800;2023-04-10T02:33:42;11.50;99.90
22779;DHT22;11556;51.194;3.800;2023-04-10T02:36:08;11.50;99.90
22779;DHT22;11556;51.194;3.800;2023-04-10T02:38:33;11.50;99.90
22779;DHT22;11556;51.194;3.800;2023-04-10T02:40:59;11.50;99.90
22779;DHT22;11556;51.194;3.800;2023-04-10T02:43:25;11.50;99.90
22779;DHT22;11556;51.194;3.800;2023-04-10T02:45:51;11.50;99.90
22779;DHT22;11556;51.194;3.800;2023-04-10T02:48:17;11.60;99.90
22779;DHT22;11556;51.194;3.800;2023-04-10T02:50:42;11.70;99.90
22779;DHT22;11556;51.194;3.800;2023-04-10T02:53:14;11.80;99.90
22779;DHT22;11556;51.194;3.800;2023-04-10T02:55:40;12.00;99.90
22779;DHT22;11556;51.194;3.800;2023-04-10T02:58:06;12.00;99.90
22779;DHT22;11556;51.194;3.800;2023-04-10T03:00:32;12.00;99.90
22779;DHT22;11556;51.194;3.800;2023-04-10T03:02:57;11.90;99.90
22779;DHT22;11556;51.194;3.800;2023-04-10T03:05:23;11.80;99.90
22779;DHT22;11556;51.194;3.800;2023-04-10T03:07:49;11.70;99.90
22779;DHT22;11556;51.194;3.800;2023-04-10T03:10:14;11.60;99.90
22779;DHT22;11556;51.194;3.800;2023-04-10T03:12:40;11.60;99.90
22779;DHT22;11556;51.194;3.800;2023-04-10T03:15:06;11.70;99.90
22779;DHT22;11556;51.194;3.800;2023-04-10T03:17:32;11.70;99.90
22779;DHT22;11556;51.194;3.800;2023-04-10T03:19:57;11.80;99.90
22779;DHT22;11556;51.194;3.800;2023-04-10T03:22:23;11.70;99.90
22779;DHT22;11556;51.194;3.800;2023-04-10T03:24:48;11.70;99.90
22779;DHT22;11556;51.194;3.800;2023-04-10T03:27:15;11.60;99.90
22779;DHT22;11556;51.194;3.800;2023-04-10T03:29:41;11.50;99.90
22779;DHT22;11556;51.194;3.800;2023-04-10T03:32:08;11.40;99.90
22779;DHT22;11556;51.194;3.800;2023-04-10T03:34:33;11.40;99.90
22779;DHT22;11556;51.194;3.800;2023-04-10T03:36:59;11.40;99.90
22779;DHT22;11556;51.194;3.800;2023-04-10T03:39:25;11.30;99.90
22779;DHT22;11556;51.194;3.800;2023-04-10T03:41:50;11.30;99.90
22779;DHT22;11556;51.194;3.800;2023-04-10T03:44:17;11.40;99.90
22779;DHT22;11556;51.194;3.800;2023-04-10T03:46:42;11.30;99.90
22779;DHT22;11556;51.194;3.800;2023-04-10T03:49:08;11.40;99.90
22779;DHT22;11556;51.194;3.800;2023-04-10T03:51:34;11.30;99.90
22779;DHT22;11556;51.194;3.800;2023-04-10T03:53:59;11.30;99.90
22779;DHT22;11556;51.194;3.800;2023-04-10T03:56:25;11.30;99.90
22779;DHT22;11556;51.194;3.800;2023-04-10T03:58:51;11.20;99.90
22779;DHT22;11556;51.194;3.800;2023-04-10T04:01:16;11.30;99.90
22779;DHT22;11556;51.194;3.800;2023-04-10T04:03:42;11.20;99.90
22779;DHT22;11556;51.194;3.800;2023-04-10T04:06:08;11.20;99.90
22779;DHT22;11556;51.194;3.800;2023-04-10T04:08:33;11.20;99.90
22779;DHT22;11556;51.194;3.800;2023-04-10T04:11:00;11.20;99.90
22779;DHT22;11556;51.194;3.800;2023-04-10T04:13:26;11.10;99.90
22779;DHT22;11556;51.194;3.800;2023-04-10T04:15:52;11.20;99.90
22779;DHT22;11556;51.194;3.800;2023-04-10T04:18:17;11.20;99.90
22779;DHT22;11556;51.194;3.800;2023-04-10T04:20:43;11.20;99.90
22779;DHT22;11556;51.194;3.800;2023-04-10T04:23:08;11.10;99.90
22779;DHT22;11556;51.194;3.800;2023-04-10T04:25:34;11.20;99.90
22779;DHT22;11556;51.194;3.800;2023-04-10T04:28:00;11.20;99.90
22779;DHT22;11556;51.194;3.800;2023-04-10T04:30:25;11.10;99.90
22779;DHT22;11556;51.194;3.800;2023-04-10T04:32:51;11.10;99.90
22779;DHT22;11556;51.194;3.800;2023-04-10T04:35:17;11.10;99.90
22779;DHT22;11556;51.194;3.800;2023-04-10T04:37:42;11.10;99.90
22779;DHT22;11556;51.194;3.800;2023-04-10T04:40:08;11.10;99.90
22779;DHT22;11556;51.194;3.800;2023-04-10T04:42:34;11.10;99.90
22779;DHT22;11556;51.194;3.800;2023-04-10T04:45:00;11.10;99.90
22779;DHT22;11556;51.194;3.800;2023-04-10T04:47:25;11.10;99.90
22779;DHT22;11556;51.194;3.800;2023-04-10T04:49:51;11.00;99.90
22779;DHT22;11556;51.194;3.800;2023-04-10T04:52:16;11.10;99.90
22779;DHT22;11556;51.194;3.800;2023-04-10T04:54:42;11.00;99.90
22779;DHT22;11556;51.194;3.800;2023-04-10T04:57:08;11.00;99.90
22779;DHT22;11556;51.194;3.800;2023-04-10T04:59:34;10.90;99.90
22779;DHT22;11556;51.194;3.800;2023-04-10T05:01:59;10.90;99.90
22779;DHT22;11556;51.194;3.800;2023-04-10T05:04:25;10.90;99.90
22779;DHT22;11556;51.194;3.800;2023-04-10T05:06:51;10.90;99.90
22779;DHT22;11556;51.194;3.800;2023-04-10T05:09:16;10.90;99.90
22779;DHT22;11556;51.194;3.800;2023-04-10T05:11:42;10.80;99.90
22779;DHT22;11556;51.194;3.800;2023-04-10T05:14:07;10.80;99.90
22779;DHT22;11556;51.194;3.800;2023-04-10T05:16:33;10.80;99.90
22779;DHT22;11556;51.194;3.800;2023-04-10T05:18:59;10.80;99.90
22779;DHT22;11556;51.194;3.800;2023-04-10T05:21:24;10.80;99.90
22779;DHT22;11556;51.194;3.800;2023-04-10T05:23:50;10.80;99.90
22779;DHT22;11556;51.194;3.800;2023-04-10T05:26:16;10.80;99.90
22779;DHT22;11556;51.194;3.800;2023-04-10T05:28:41;10.80;99.90
22779;DHT22;11556;51.194;3.800;2023-04-10T05:31:07;10.80;99.90
22779;DHT22;11556;51.194;3.800;2023-04-10T05:33:32;10.90;99.90
22779;DHT22;11556;51.194;3.800;2023-04-10T05:35:58;10.90;99.90
22779;DHT22;11556;51.194;3.800;2023-04-10T05:38:24;10.90;99.90
22779;DHT22;11556;51.194;3.800;2023-04-10T05:40:49;10.90;99.90
22779;DHT22;11556;51.194;3.800;2023-04-10T05:43:15;10.90;99.90
22779;DHT22;11556;51.194;3.800;2023-04-10T05:45:43;10.90;99.90
22779;DHT22;11556;51.194;3.800;2023-04-10T05:48:09;10.90;99.90
22779;DHT22;11556;51.194;3.800;2023-04-10T05:50:35;11.00;99.90
22779;DHT22;11556;51.194;3.800;2023-04-10T05:53:00;11.00;99.90
22779;DHT22;11556;51.194;3.800;2023-04-10T05:55:26;11.00;99.90
22779;DHT22;11556;51.194;3.800;2023-04-10T05:57:54;11.00;99.90
22779;DHT22;11556;51.194;3.800;2023-04-10T06:00:20;11.10;99.90
22779;DHT22;11556;51.194;3.800;2023-04-10T06:02:46;11.10;99.90
22779;DHT22;11556;51.194;3.800;2023-04-10T06:05:11;11.10;99.90
22779;DHT22;11556;51.194;3.800;2023-04-10T06:07:37;11.10;99.90
22779;DHT22;11556;51.194;3.800;2023-04-10T06:10:03;11.10;99.90
22779;DHT22;11556;51.194;3.800;2023-04-10T06:12:29;11.10;99.90
22779;DHT22;11556;51.194;3.800;2023-04-10T06:14:54;11.10;99.90
22779;DHT22;11556;51.194;3.800;2023-04-10T06:17:20;11.20;99.90
22779;DHT22;11556;51.194;3.800;2023-04-10T06:19:46;11.20;99.90
22779;DHT22;11556;51.194;3.800;2023-04-10T06:22:12;11.30;99.90
22779;DHT22;11556;51.194;3.800;2023-04-10T06:24:37;11.20;99.90
22779;DHT22;11556;51.194;3.800;2023-04-10T06:27:03;11.30;99.90
22779;DHT22;11556;51.194;3.800;2023-04-10T06:29:29;11.30;99.90
22779;DHT22;11556;51.194;3.800;2023-04-10T06:31:54;11.40;99.90
22779;DHT22;11556;51.194;3.800;2023-04-10T06:34:20;11.40;99.90
22779;DHT22;11556;51.194;3.800;2023-04-10T06:36:46;11.40;99.90
22779;DHT22;11556;51.194;3.800;2023-04-10T06:39:11;11.50;99.90
22779;DHT22;11556;51.194;3.800;2023-04-10T06:41:37;11.60;99.90
22779;DHT22;11556;51.194;3.800;2023-04-10T06:44:03;11.50;99.90
22779;DHT22;11556;51.194;3.800;2023-04-10T06:46:28;11.50;99.90
22779;DHT22;11556;51.194;3.800;2023-04-10T06:48:54;11.60;99.90
22779;DHT22;11556;51.194;3.800;2023-04-10T06:51:19;11.70;99.90
22779;DHT22;11556;51.194;3.800;2023-04-10T06:53:45;11.70;99.90
22779;DHT22;11556;51.194;3.800;2023-04-10T06:56:11;11.70;99.90
22779;DHT22;11556;51.194;3.800;2023-04-10T06:58:36;11.70;99.90
22779;DHT22;11556;51.194;3.800;2023-04-10T07:01:02;11.70;99.90
22779;DHT22;11556;51.194;3.800;2023-04-10T07:03:29;11.80;99.90
22779;DHT22;11556;51.194;3.800;2023-04-10T07:05:56;11.80;99.90
22779;DHT22;11556;51.194;3.800;2023-04-10T07:08:22;11.90;99.90
22779;DHT22;11556;51.194;3.800;2023-04-10T07:10:48;11.90;99.90
22779;DHT22;11556;51.194;3.800;2023-04-10T07:13:13;12.00;99.90
22779;DHT22;11556;51.194;3.800;2023-04-10T07:15:39;12.00;99.90
22779;DHT22;11556;51.194;3.800;2023-04-10T07:18:05;12.10;99.90
22779;DHT22;11556;51.194;3.800;2023-04-10T07:20:30;12.10;99.90
22779;DHT22;11556;51.194;3.800;2023-04-10T07:22:56;12.20;99.90
22779;DHT22;11556;51.194;3.800;2023-04-10T07:25:22;12.30;99.90
22779;DHT22;11556;51.194;3.800;2023-04-10T07:27:48;12.40;99.90
22779;DHT22;11556;51.194;3.800;2023-04-10T07:30:13;12.30;99.90
22779;DHT22;11556;51.194;3.800;2023-04-10T07:32:39;12.30;99.90
22779;DHT22;11556;51.194;3.800;2023-04-10T07:35:06;12.40;99.90
22779;DHT22;11556;51.194;3.800;2023-04-10T07:37:32;12.40;99.90
22779;DHT22;11556;51.194;3.800;2023-04-10T07:39:58;12.40;99.90
22779;DHT22;11556;51.194;3.800;2023-04-10T07:42:23;12.40;99.90
22779;DHT22;11556;51.194;3.800;2023-04-10T07:44:49;12.50;99.90
22779;DHT22;11556;51.194;3.800;2023-04-10T07:47:15;12.70;99.90
22779;DHT22;11556;51.194;3.800;2023-04-10T07:49:40;12.80;99.90
22779;DHT22;11556;51.194;3.800;2023-04-10T07:52:06;12.90;99.90
22779;DHT22;11556;51.194;3.800;2023-04-10T07:54:32;13.00;99.90
22779;DHT22;11556;51.194;3.800;2023-04-10T07:56:58;13.00;99.90
22779;DHT22;11556;51.194;3.800;2023-04-10T07:59:25;13.00;99.90
22779;DHT22;11556;51.194;3.800;2023-04-10T08:01:51;12.90;99.90
22779;DHT22;11556;51.194;3.800;2023-04-10T08:04:16;13.00;99.90
22779;DHT22;11556;51.194;3.800;2023-04-10T08:06:42;13.00;99.90
22779;DHT22;11556;51.194;3.800;2023-04-10T08:09:07;13.10;99.90
22779;DHT22;11556;51.194;3.800;2023-04-10T08:11:34;13.00;99.90
22779;DHT22;11556;51.194;3.800;2023-04-10T08:14:02;13.00;99.90
22779;DHT22;11556;51.194;3.800;2023-04-10T08:16:29;13.10;99.90
22779;DHT22;11556;51.194;3.800;2023-04-10T08:18:56;13.20;99.90
22779;DHT22;11556;51.194;3.800;2023-04-10T08:21:23;13.20;99.90
22779;DHT22;11556;51.194;3.800;2023-04-10T08:23:49;13.10;99.90
22779;DHT22;11556;51.194;3.800;2023-04-10T08:26:16;13.20;99.90
22779;DHT22;11556;51.194;3.800;2023-04-10T08:28:41;13.40;99.90
22779;DHT22;11556;51.194;3.800;2023-04-10T08:31:12;13.70;99.90
22779;DHT22;11556;51.194;3.800;2023-04-10T08:33:38;13.90;99.90
22779;DHT22;11556;51.194;3.800;2023-04-10T08:36:04;13.90;99.90
22779;DHT22;11556;51.194;3.800;2023-04-10T08:38:30;14.10;99.90
22779;DHT22;11556;51.194;3.800;2023-04-10T08:40:56;14.40;99.90
22779;DHT22;11556;51.194;3.800;2023-04-10T08:43:22;14.30;99.90
22779;DHT22;11556;51.194;3.800;2023-04-10T08:45:48;14.40;99.90
22779;DHT22;11556;51.194;3.800;2023-04-10T08:48:15;14.50;99.90
22779;DHT22;11556;51.194;3.800;2023-04-10T08:50:45;14.50;99.90
22779;DHT22;11556;51.194;3.800;2023-04-10T08:53:12;14.70;99.90
22779;DHT22;11556;51.194;3.800;2023-04-10T08:55:39;14.80;99.90
22779;DHT22;11556;51.194;3.800;2023-04-10T08:58:05;14.90;99.90
22779;DHT22;11556;51.194;3.800;2023-04-10T09:00:34;14.80;99.90
22779;DHT22;11556;51.194;3.800;2023-04-10T09:03:03;14.50;99.90
22779;DHT22;11556;51.194;3.800;2023-04-10T09:05:30;14.40;99.90
22779;DHT22;11556;51.194;3.800;2023-04-10T09:07:56;14.50;99.90
22779;DHT22;11556;51.194;3.800;2023-04-10T09:10:22;14.70;99.90
22779;DHT22;11556;51.194;3.800;2023-04-10T09:12:48;14.70;99.90
22779;DHT22;11556;51.194;3.800;2023-04-10T09:15:14;14.80;99.90
22779;DHT22;11556;51.194;3.800;2023-04-10T09:17:54;15.10;99.90
22779;DHT22;11556;51.194;3.800;2023-04-10T09:20:22;15.40;99.90
22779;DHT22;11556;51.194;3.800;2023-04-10T09:22:47;15.40;99.90
22779;DHT22;11556;51.194;3.800;2023-04-10T09:25:33;15.70;99.90
22779;DHT22;11556;51.194;3.800;2023-04-10T09:28:09;15.90;99.90
22779;DHT22;11556;51.194;3.800;2023-04-10T09:30:40;15.60;99.90
22779;DHT22;11556;51.194;3.800;2023-04-10T09:33:22;15.70;99.90
22779;DHT22;11556;51.194;3.800;2023-04-10T09:35:48;16.00;99.90
22779;DHT22;11556;51.194;3.800;2023-04-10T09:38:19;16.40;99.90
22779;DHT22;11556;51.194;3.800;2023-04-10T09:40:46;16.50;99.90
22779;DHT22;11556;51.194;3.800;2023-04-10T09:43:23;16.90;99.90
22779;DHT22;11556;51.194;3.800;2023-04-10T09:45:51;17.00;99.90
22779;DHT22;11556;51.194;3.800;2023-04-10T09:48:17;17.00;99.90
22779;DHT22;11556;51.194;3.800;2023-04-10T09:50:43;16.50;99.90
22779;DHT22;11556;51.194;3.800;2023-04-10T09:53:11;16.60;99.90
22779;DHT22;11556;51.194;3.800;2023-04-10T09:55:37;16.80;99.90
22779;DHT22;11556;51.194;3.800;2023-04-10T09:58:04;16.40;99.90
22779;DHT22;11556;51.194;3.800;2023-04-10T10:00:36;16.40;99.90
22779;DHT22;11556;51.194;3.800;2023-04-10T10:03:04;16.60;99.90
22779;DHT22;11556;51.194;3.800;2023-04-10T10:05:31;16.60;99.90
22779;DHT22;11556;51.194;3.800;2023-04-10T10:07:59;17.00;99.90
22779;DHT22;11556;51.194;3.800;2023-04-10T10:10:24;17.60;99.90
22779;DHT22;11556;51.194;3.800;2023-04-10T10:12:56;18.10;99.90
22779;DHT22;11556;51.194;3.800;2023-04-10T10:17:59;18.20;99.90
22779;DHT22;11556;51.194;3.800;2023-04-10T10:20:27;17.70;99.90
22779;DHT22;11556;51.194;3.800;2023-04-10T10:22:53;17.50;99.90
22779;DHT22;11556;51.194;3.800;2023-04-10T10:25:20;17.00;99.90
22779;DHT22;11556;51.194;3.800;2023-04-10T10:27:48;17.00;99.90
22779;DHT22;11556;51.194;3.800;2023-04-10T10:30:16;17.20;99.90
22779;DHT22;11556;51.194;3.800;2023-04-10T10:32:44;17.40;99.90
22779;DHT22;11556;51.194;3.800;2023-04-10T10:35:11;17.40;99.90
22779;DHT22;11556;51.194;3.800;2023-04-10T10:37:38;17.10;99.90
22779;DHT22;11556;51.194;3.800;2023-04-10T10:40:11;17.00;99.90
22779;DHT22;11556;51.194;3.800;2023-04-10T10:43:17;17.00;99.90
22779;DHT22;11556;51.194;3.800;2023-04-10T10:45:58;16.70;99.90
22779;DHT22;11556;51.194;3.800;2023-04-10T10:48:25;16.90;99.90
22779;DHT22;11556;51.194;3.800;2023-04-10T10:50:58;16.90;99.90
22779;DHT22;11556;51.194;3.800;2023-04-10T10:53:38;17.00;99.90
22779;DHT22;11556;51.194;3.800;2023-04-10T10:58:52;17.10;99.90
22779;DHT22;11556;51.194;3.800;2023-04-10T11:01:26;17.00;99.90
22779;DHT22;11556;51.194;3.800;2023-04-10T11:03:52;16.70;99.90
22779;DHT22;11556;51.194;3.800;2023-04-10T11:06:19;16.50;99.90
22779;DHT22;11556;51.194;3.800;2023-04-10T11:16:14;16.60;99.90
22779;DHT22;11556;51.194;3.800;2023-04-10T11:21:12;16.80;99.90
22779;DHT22;11556;51.194;3.800;2023-04-10T11:31:46;16.10;99.90
22779;DHT22;11556;51.194;3.800;2023-04-10T11:34:18;16.00;99.90
22779;DHT22;11556;51.194;3.800;2023-04-10T11:36:44;16.00;99.90
22779;DHT22;11556;51.194;3.800;2023-04-10T11:39:11;16.00;99.90
22779;DHT22;11556;51.194;3.800;2023-04-10T11:41:42;15.80;99.90
22779;DHT22;11556;51.194;3.800;2023-04-10T11:44:15;15.70;99.90
22779;DHT22;11556;51.194;3.800;2023-04-10T11:46:44;15.50;99.90
22779;DHT22;11556;51.194;3.800;2023-04-10T11:49:18;15.20;99.90
22779;DHT22;11556;51.194;3.800;2023-04-10T11:51:45;15.20;99.90
22779;DHT22;11556;51.194;3.800;2023-04-10T11:54:13;15.10;99.90
22779;DHT22;11556;51.194;3.800;2023-04-10T11:56:41;15.10;99.90
22779;DHT22;11556;51.194;3.800;2023-04-10T11:59:08;14.90;99.90
22779;DHT22;11556;51.194;3.800;2023-04-10T12:01:36;14.90;99.90
22779;DHT22;11556;51.194;3.800;2023-04-10T12:04:02;15.00;99.90
22779;DHT22;11556;51.194;3.800;2023-04-10T12:06:28;15.10;99.90
22779;DHT22;11556;51.194;3.800;2023-04-10T12:08:54;15.20;99.90
22779;DHT22;11556;51.194;3.800;2023-04-10T12:11:23;15.20;99.90
22779;DHT22;11556;51.194;3.800;2023-04-10T12:13:54;15.00;99.90
22779;DHT22;11556;51.194;3.800;2023-04-10T12:16:21;14.90;99.90
22779;DHT22;11556;51.194;3.800;2023-04-10T12:18:48;14.80;99.90
22779;DHT22;11556;51.194;3.800;2023-04-10T12:21:14;14.80;99.90
22779;DHT22;11556;51.194;3.800;2023-04-10T12:23:40;14.60;99.90
22779;DHT22;11556;51.194;3.800;2023-04-10T12:28:35;14.30;99.90
22779;DHT22;11556;51.194;3.800;2023-04-10T12:31:02;14.20;99.90
22779;DHT22;11556;51.194;3.800;2023-04-10T12:33:28;14.00;99.90
22779;DHT22;11556;51.194;3.800;2023-04-10T12:35:54;14.00;99.90
22779;DHT22;11556;51.194;3.800;2023-04-10T12:38:45;14.00;99.90
22779;DHT22;11556;51.194;3.800;2023-04-10T12:41:11;14.20;99.90
22779;DHT22;11556;51.194;3.800;2023-04-10T12:43:38;14.30;99.90
22779;DHT22;11556;51.194;3.800;2023-04-10T12:46:06;14.30;99.90
22779;DHT22;11556;51.194;3.800;2023-04-10T12:48:33;14.20;99.90
22779;DHT22;11556;51.194;3.800;2023-04-10T12:50:59;14.20;99.90
22779;DHT22;11556;51.194;3.800;2023-04-10T12:53:25;14.20;99.90
22779;DHT22;11556;51.194;3.800;2023-04-10T12:56:04;14.10;99.90
22779;DHT22;11556;51.194;3.800;2023-04-10T12:58:31;14.00;99.90
22779;DHT22;11556;51.194;3.800;2023-04-10T13:01:05;14.00;99.90
22779;DHT22;11556;51.194;3.800;2023-04-10T13:03:35;14.10;99.90
22779;DHT22;11556;51.194;3.800;2023-04-10T13:06:04;14.20;99.90
22779;DHT22;11556;51.194;3.800;2023-04-10T13:08:29;14.30;99.90
22779;DHT22;11556;51.194;3.800;2023-04-10T13:11:00;14.30;99.90
22779;DHT22;11556;51.194;3.800;2023-04-10T13:13:29;14.30;99.90
22779;DHT22;11556;51.194;3.800;2023-04-10T13:15:57;14.40;99.90
22779;DHT22;11556;51.194;3.800;2023-04-10T13:18:23;14.40;99.90
22779;DHT22;11556;51.194;3.800;2023-04-10T13:20:48;14.50;99.90
22779;DHT22;11556;51.194;3.800;2023-04-10T13:23:14;14.60;99.90
22779;DHT22;11556;51.194;3.800;2023-04-10T13:25:40;14.80;99.90
22779;DHT22;11556;51.194;3.800;2023-04-10T13:28:07;14.80;99.90
22779;DHT22;11556;51.194;3.800;2023-04-10T13:30:36;15.00;99.90
22779;DHT22;11556;51.194;3.800;2023-04-10T13:33:02;15.10;99.90
22779;DHT22;11556;51.194;3.800;2023-04-10T13:35:28;15.30;99.90
22779;DHT22;11556;51.194;3.800;2023-04-10T13:37:54;15.40;99.90
22779;DHT22;11556;51.194;3.800;2023-04-10T13:40:20;15.30;99.90
22779;DHT22;11556;51.194;3.800;2023-04-10T13:42:46;15.40;99.90
22779;DHT22;11556;51.194;3.800;2023-04-10T13:45:12;15.60;99.90
22779;DHT22;11556;51.194;3.800;2023-04-10T13:47:38;15.80;99.90
22779;DHT22;11556;51.194;3.800;2023-04-10T13:50:04;15.90;99.90
22779;DHT22;11556;51.194;3.800;2023-04-10T13:52:30;16.00;99.90
22779;DHT22;11556;51.194;3.800;2023-04-10T13:54:55;16.10;99.90
22779;DHT22;11556;51.194;3.800;2023-04-10T13:57:21;15.90;99.90
22779;DHT22;11556;51.194;3.800;2023-04-10T13:59:47;15.90;99.90
22779;DHT22;11556;51.194;3.800;2023-04-10T14:02:13;15.80;99.90
22779;DHT22;11556;51.194;3.800;2023-04-10T14:04:39;15.40;99.90
22779;DHT22;11556;51.194;3.800;2023-04-10T14:07:08;15.10;99.90
22779;DHT22;11556;51.194;3.800;2023-04-10T14:09:33;15.00;99.90
22779;DHT22;11556;51.194;3.800;2023-04-10T14:11:59;14.80;99.90
22779;DHT22;11556;51.194;3.800;2023-04-10T14:14:26;14.50;99.90
22779;DHT22;11556;51.194;3.800;2023-04-10T14:16:51;14.30;99.90
22779;DHT22;11556;51.194;3.800;2023-04-10T14:19:17;14.00;99.90
22779;DHT22;11556;51.194;3.800;2023-04-10T14:21:43;13.90;99.90
22779;DHT22;11556;51.194;3.800;2023-04-10T14:24:09;13.80;99.90
22779;DHT22;11556;51.194;3.800;2023-04-10T14:26:35;13.80;99.90
22779;DHT22;11556;51.194;3.800;2023-04-10T14:29:00;13.80;99.90
22779;DHT22;11556;51.194;3.800;2023-04-10T14:31:26;13.70;99.90
22779;DHT22;11556;51.194;3.800;2023-04-10T14:33:51;13.60;99.90
22779;DHT22;11556;51.194;3.800;2023-04-10T14:36:17;13.50;99.90
22779;DHT22;11556;51.194;3.800;2023-04-10T14:38:43;13.50;99.90
22779;DHT22;11556;51.194;3.800;2023-04-10T14:41:08;13.40;99.90
22779;DHT22;11556;51.194;3.800;2023-04-10T14:43:34;13.30;99.90
22779;DHT22;11556;51.194;3.800;2023-04-10T14:46:00;13.30;99.90
22779;DHT22;11556;51.194;3.800;2023-04-10T14:48:25;13.30;99.90
22779;DHT22;11556;51.194;3.800;2023-04-10T14:50:51;13.30;99.90
22779;DHT22;11556;51.194;3.800;2023-04-10T14:53:17;13.20;99.90
22779;DHT22;11556;51.194;3.800;2023-04-10T14:55:42;13.10;99.90
22779;DHT22;11556;51.194;3.800;2023-04-10T14:58:08;13.10;99.90
22779;DHT22;11556;51.194;3.800;2023-04-10T15:00:35;13.00;99.90
22779;DHT22;11556;51.194;3.800;2023-04-10T15:03:01;13.00;99.90
22779;DHT22;11556;51.194;3.800;2023-04-10T15:05:26;13.20;99.90
22779;DHT22;11556;51.194;3.800;2023-04-10T15:07:53;13.20;99.90
22779;DHT22;11556;51.194;3.800;2023-04-10T15:10:19;13.30;99.90
22779;DHT22;11556;51.194;3.800;2023-04-10T15:12:44;13.40;99.90
22779;DHT22;11556;51.194;3.800;2023-04-10T15:15:10;13.30;99.90
22779;DHT22;11556;51.194;3.800;2023-04-10T15:17:35;13.20;99.90
22779;DHT22;11556;51.194;3.800;2023-04-10T15:20:01;13.10;99.90
22779;DHT22;11556;51.194;3.800;2023-04-10T15:22:29;13.00;99.90
22779;DHT22;11556;51.194;3.800;2023-04-10T15:24:55;13.00;99.90
22779;DHT22;11556;51.194;3.800;2023-04-10T15:27:21;13.00;99.90
22779;DHT22;11556;51.194;3.800;2023-04-10T15:29:46;13.00;99.90
22779;DHT22;11556;51.194;3.800;2023-04-10T15:32:12;13.00;99.90
22779;DHT22;11556;51.194;3.800;2023-04-10T15:34:38;13.00;99.90
22779;DHT22;11556;51.194;3.800;2023-04-10T15:37:03;13.00;99.90
22779;DHT22;11556;51.194;3.800;2023-04-10T15:39:29;13.10;99.90
22779;DHT22;11556;51.194;3.800;2023-04-10T15:41:58;13.00;99.90
22779;DHT22;11556;51.194;3.800;2023-04-10T15:44:25;13.00;99.90
22779;DHT22;11556;51.194;3.800;2023-04-10T15:46:50;12.90;99.90
22779;DHT22;11556;51.194;3.800;2023-04-10T15:49:17;13.00;99.90
22779;DHT22;11556;51.194;3.800;2023-04-10T15:51:43;12.90;99.90
22779;DHT22;11556;51.194;3.800;2023-04-10T15:54:09;12.80;99.90
22779;DHT22;11556;51.194;3.800;2023-04-10T15:56:35;12.80;99.90
22779;DHT22;11556;51.194;3.800;2023-04-10T15:59:01;12.80;99.90
22779;DHT22;11556;51.194;3.800;2023-04-10T16:01:26;12.80;99.90